sensor_id;sensor_type;location;lat;lon;timestamp;temperature;humidity
69533;DHT22;56729;52.036;5.332;2024-01-27T00:00:29;2.40;99.90
69533;DHT22;56729;52.036;5.332;2024-01-27T00:01:32;2.40;99.90
69533;DHT22;56729;52.036;5.332;2024-01-27T00:02:35;2.40;99.90
69533;DHT22;56729;52.036;5.332;2024-01-27T00:03:37;2.40;99.90
69533;DHT22;56729;52.036;5.332;2024-01-27T00:04:39;2.30;99.90
69533;DHT22;56729;52.036;5.332;2024-01-27T00:05:41;2.40;99.90
69533;DHT22;56729;52.036;5.332;2024-01-27T00:06:44;2.30;99.90
69533;DHT22;56729;52.036;5.332;2024-01-27T00:07:46;2.30;99.90
69533;DHT22;56729;52.036;5.332;2024-01-27T00:08:49;2.30;99.90
69533;DHT22;56729;52.036;5.332;2024-01-27T00:09:51;2.30;99.90
69533;DHT22;56729;52.036;5.332;2024-01-27T00:10:53;2.30;99.90
69533;DHT22;56729;52.036;5.332;2024-01-27T00:11:56;2.30;99.90
69533;DHT22;56729;52.036;5.332;2024-01-27T00:12:58;2.30;99.90
69533;DHT22;56729;52.036;5.332;2024-01-27T00:14:01;2.30;99.90
69533;DHT22;56729;52.036;5.332;2024-01-27T00:15:03;2.30;99.90
69533;DHT22;56729;52.036;5.332;2024-01-27T00:16:06;2.30;99.90
69533;DHT22;56729;52.036;5.332;2024-01-27T00:17:09;2.30;99.90
69533;DHT22;56729;52.036;5.332;2024-01-27T00:18:11;2.30;99.90
69533;DHT22;56729;52.036;5.332;2024-01-27T00:19:13;2.30;99.90
69533;DHT22;56729;52.036;5.332;2024-01-27T00:20:16;2.30;99.90
69533;DHT22;56729;52.036;5.332;2024-01-27T00:21:18;2.20;99.90
69533;DHT22;56729;52.036;5.332;2024-01-27T00:22:21;2.20;99.90
69533;DHT22;56729;52.036;5.332;2024-01-27T00:23:23;2.20;99.90
69533;DHT22;56729;52.036;5.332;2024-01-27T00:24:26;2.20;99.90
69533;DHT22;56729;52.036;5.332;2024-01-27T00:25:28;2.20;99.90
69533;DHT22;56729;52.036;5.332;2024-01-27T00:26:30;2.10;99.90
69533;DHT22;56729;52.036;5.332;2024-01-27T00:27:33;2.10;99.90
69533;DHT22;56729;52.036;5.332;2024-01-27T00:28:35;2.10;99.90
69533;DHT22;56729;52.036;5.332;2024-01-27T00:29:38;2.10;99.90
69533;DHT22;56729;52.036;5.332;2024-01-27T00:30:41;2.10;99.90
69533;DHT22;56729;52.036;5.332;2024-01-27T00:31:43;2.10;99.90
69533;DHT22;56729;52.036;5.332;2024-01-27T00:32:45;2.10;99.90
69533;DHT22;56729;52.036;5.332;2024-01-27T00:33:48;2.10;99.90
69533;DHT22;56729;52.036;5.332;2024-01-27T00:34:50;2.10;99.90
69533;DHT22;56729;52.036;5.332;2024-01-27T00:35:52;2.20;99.90
69533;DHT22;56729;52.036;5.332;2024-01-27T00:36:55;2.20;99.90
69533;DHT22;56729;52.036;5.332;2024-01-27T00:37:57;2.20;99.90
69533;DHT22;56729;52.036;5.332;2024-01-27T00:38:59;2.20;99.90
69533;DHT22;56729;52.036;5.332;2024-01-27T00:40:02;2.20;99.90
69533;DHT22;56729;52.036;5.332;2024-01-27T00:41:05;2.20;99.90
69533;DHT22;56729;52.036;5.332;2024-01-27T00:42:07;2.20;99.90
69533;DHT22;56729;52.036;5.332;2024-01-27T00:43:09;2.20;99.90
69533;DHT22;56729;52.036;5.332;2024-01-27T00:44:11;2.20;99.90
69533;DHT22;56729;52.036;5.332;2024-01-27T00:45:13;2.20;99.90
69533;DHT22;56729;52.036;5.332;2024-01-27T00:46:15;2.10;99.90
69533;DHT22;56729;52.036;5.332;2024-01-27T00:47:18;2.20;99.90
69533;DHT22;56729;52.036;5.332;2024-01-27T00:48:19;2.10;99.90
69533;DHT22;56729;52.036;5.332;2024-01-27T00:49:22;2.20;99.90
69533;DHT22;56729;52.036;5.332;2024-01-27T00:50:24;2.10;99.90
69533;DHT22;56729;52.036;5.332;2024-01-27T00:51:27;2.10;99.90
69533;DHT22;56729;52.036;5.332;2024-01-27T00:52:29;2.10;99.90
69533;DHT22;56729;52.036;5.332;2024-01-27T00:53:31;2.10;99.90
69533;DHT22;56729;52.036;5.332;2024-01-27T00:54:33;2.10;99.90
69533;DHT22;56729;52.036;5.332;2024-01-27T00:55:35;2.10;99.90
69533;DHT22;56729;52.036;5.332;2024-01-27T00:56:37;2.00;99.90
69533;DHT22;56729;52.036;5.332;2024-01-27T00:57:39;2.00;99.90
69533;DHT22;56729;52.036;5.332;2024-01-27T00:58:42;2.00;99.90
69533;DHT22;56729;52.036;5.332;2024-01-27T00:59:44;2.00;99.90
69533;DHT22;56729;52.036;5.332;2024-01-27T01:00:51;2.00;99.90
69533;DHT22;56729;52.036;5.332;2024-01-27T01:01:54;2.00;99.90
69533;DHT22;56729;52.036;5.332;2024-01-27T01:02:56;2.00;99.90
69533;DHT22;56729;52.036;5.332;2024-01-27T01:03:58;2.00;99.90
69533;DHT22;56729;52.036;5.332;2024-01-27T01:05:01;2.00;99.90
69533;DHT22;56729;52.036;5.332;2024-01-27T01:06:03;2.00;99.90
69533;DHT22;56729;52.036;5.332;2024-01-27T01:07:06;2.00;99.90
69533;DHT22;56729;52.036;5.332;2024-01-27T01:08:08;1.90;99.90
69533;DHT22;56729;52.036;5.332;2024-01-27T01:09:10;1.90;99.90
69533;DHT22;56729;52.036;5.332;2024-01-27T01:10:12;1.90;99.90
69533;DHT22;56729;52.036;5.332;2024-01-27T01:11:15;1.90;99.90
69533;DHT22;56729;52.036;5.332;2024-01-27T01:12:18;1.90;99.90
69533;DHT22;56729;52.036;5.332;2024-01-27T01:13:20;1.90;99.90
69533;DHT22;56729;52.036;5.332;2024-01-27T01:14:22;1.90;99.90
69533;DHT22;56729;52.036;5.332;2024-01-27T01:15:24;1.90;99.90
69533;DHT22;56729;52.036;5.332;2024-01-27T01:16:26;1.90;99.90
69533;DHT22;56729;52.036;5.332;2024-01-27T01:17:28;1.80;99.90
69533;DHT22;56729;52.036;5.332;2024-01-27T01:18:30;1.80;99.90
69533;DHT22;56729;52.036;5.332;2024-01-27T01:19:33;1.80;99.90
69533;DHT22;56729;52.036;5.332;2024-01-27T01:20:35;1.80;99.90
69533;DHT22;56729;52.036;5.332;2024-01-27T01:21:37;1.80;99.90
69533;DHT22;56729;52.036;5.332;2024-01-27T01:22:39;1.80;99.90
69533;DHT22;56729;52.036;5.332;2024-01-27T01:23:41;1.80;99.90
69533;DHT22;56729;52.036;5.332;2024-01-27T01:24:43;1.80;99.90
69533;DHT22;56729;52.036;5.332;2024-01-27T01:25:45;1.80;99.90
69533;DHT22;56729;52.036;5.332;2024-01-27T01:26:47;1.90;99.90
69533;DHT22;56729;52.036;5.332;2024-01-27T01:27:49;1.80;99.90
69533;DHT22;56729;52.036;5.332;2024-01-27T01:28:52;1.80;99.90
69533;DHT22;56729;52.036;5.332;2024-01-27T01:29:54;1.80;99.90
69533;DHT22;56729;52.036;5.332;2024-01-27T01:30:56;1.80;99.90
69533;DHT22;56729;52.036;5.332;2024-01-27T01:31:58;1.80;99.90
69533;DHT22;56729;52.036;5.332;2024-01-27T01:33:00;1.80;99.90
69533;DHT22;56729;52.036;5.332;2024-01-27T01:34:03;1.80;99.90
69533;DHT22;56729;52.036;5.332;2024-01-27T01:35:05;1.80;99.90
69533;DHT22;56729;52.036;5.332;2024-01-27T01:36:07;1.80;99.90
69533;DHT22;56729;52.036;5.332;2024-01-27T01:37:09;1.80;99.90
69533;DHT22;56729;52.036;5.332;2024-01-27T01:38:12;1.80;99.90
69533;DHT22;56729;52.036;5.332;2024-01-27T01:39:14;1.80;99.90
69533;DHT22;56729;52.036;5.332;2024-01-27T01:40:16;1.80;99.90
69533;DHT22;56729;52.036;5.332;2024-01-27T01:41:18;1.70;99.90
69533;DHT22;56729;52.036;5.332;2024-01-27T01:42:20;1.70;99.90
69533;DHT22;56729;52.036;5.332;2024-01-27T01:43:26;1.70;99.90
69533;DHT22;56729;52.036;5.332;2024-01-27T01:44:30;1.70;99.90
69533;DHT22;56729;52.036;5.332;2024-01-27T01:45:33;1.70;99.90
69533;DHT22;56729;52.036;5.332;2024-01-27T01:46:35;1.70;99.90
69533;DHT22;56729;52.036;5.332;2024-01-27T01:47:37;1.70;99.90
69533;DHT22;56729;52.036;5.332;2024-01-27T01:48:39;1.70;99.90
69533;DHT22;56729;52.036;5.332;2024-01-27T01:49:42;1.70;99.90
69533;DHT22;56729;52.036;5.332;2024-01-27T01:50:44;1.70;99.90
69533;DHT22;56729;52.036;5.332;2024-01-27T01:51:46;1.70;99.90
69533;DHT22;56729;52.036;5.332;2024-01-27T01:52:48;1.70;99.90
69533;DHT22;56729;52.036;5.332;2024-01-27T01:53:51;1.70;99.90
69533;DHT22;56729;52.036;5.332;2024-01-27T01:54:56;1.70;99.90
69533;DHT22;56729;52.036;5.332;2024-01-27T01:55:58;1.70;99.90
69533;DHT22;56729;52.036;5.332;2024-01-27T01:57:00;1.70;99.90
69533;DHT22;56729;52.036;5.332;2024-01-27T01:58:04;1.70;99.90
69533;DHT22;56729;52.036;5.332;2024-01-27T01:59:06;1.70;99.90
69533;DHT22;56729;52.036;5.332;2024-01-27T02:00:09;1.70;99.90
69533;DHT22;56729;52.036;5.332;2024-01-27T02:01:16;1.70;99.90
69533;DHT22;56729;52.036;5.332;2024-01-27T02:02:18;1.70;99.90
69533;DHT22;56729;52.036;5.332;2024-01-27T02:03:20;1.60;99.90
69533;DHT22;56729;52.036;5.332;2024-01-27T02:04:22;1.70;99.90
69533;DHT22;56729;52.036;5.332;2024-01-27T02:05:24;1.60;99.90
69533;DHT22;56729;52.036;5.332;2024-01-27T02:06:27;1.60;99.90
69533;DHT22;56729;52.036;5.332;2024-01-27T02:07:29;1.60;99.90
69533;DHT22;56729;52.036;5.332;2024-01-27T02:08:30;1.60;99.90
69533;DHT22;56729;52.036;5.332;2024-01-27T02:09:32;1.60;99.90
69533;DHT22;56729;52.036;5.332;2024-01-27T02:10:34;1.60;99.90
69533;DHT22;56729;52.036;5.332;2024-01-27T02:11:39;1.60;99.90
69533;DHT22;56729;52.036;5.332;2024-01-27T02:12:43;1.60;99.90
69533;DHT22;56729;52.036;5.332;2024-01-27T02:13:47;1.60;99.90
69533;DHT22;56729;52.036;5.332;2024-01-27T02:14:49;1.60;99.90
69533;DHT22;56729;52.036;5.332;2024-01-27T02:15:51;1.60;99.90
69533;DHT22;56729;52.036;5.332;2024-01-27T02:16:54;1.50;99.90
69533;DHT22;56729;52.036;5.332;2024-01-27T02:17:56;1.50;99.90
69533;DHT22;56729;52.036;5.332;2024-01-27T02:18:58;1.50;99.90
69533;DHT22;56729;52.036;5.332;2024-01-27T02:20:00;1.50;99.90
69533;DHT22;56729;52.036;5.332;2024-01-27T02:21:02;1.50;99.90
69533;DHT22;56729;52.036;5.332;2024-01-27T02:22:04;1.50;99.90
69533;DHT22;56729;52.036;5.332;2024-01-27T02:23:06;1.50;99.90
69533;DHT22;56729;52.036;5.332;2024-01-27T02:24:08;1.50;99.90
69533;DHT22;56729;52.036;5.332;2024-01-27T02:25:11;1.60;99.90
69533;DHT22;56729;52.036;5.332;2024-01-27T02:26:13;1.60;99.90
69533;DHT22;56729;52.036;5.332;2024-01-27T02:27:15;1.60;99.90
69533;DHT22;56729;52.036;5.332;2024-01-27T02:28:17;1.60;99.90
69533;DHT22;56729;52.036;5.332;2024-01-27T02:29:19;1.60;99.90
69533;DHT22;56729;52.036;5.332;2024-01-27T02:30:22;1.60;99.90
69533;DHT22;56729;52.036;5.332;2024-01-27T02:31:24;1.60;99.90
69533;DHT22;56729;52.036;5.332;2024-01-27T02:32:26;1.50;99.90
69533;DHT22;56729;52.036;5.332;2024-01-27T02:33:28;1.50;99.90
69533;DHT22;56729;52.036;5.332;2024-01-27T02:34:31;1.50;99.90
69533;DHT22;56729;52.036;5.332;2024-01-27T02:35:33;1.50;99.90
69533;DHT22;56729;52.036;5.332;2024-01-27T02:36:34;1.40;99.90
69533;DHT22;56729;52.036;5.332;2024-01-27T02:37:37;1.40;99.90
69533;DHT22;56729;52.036;5.332;2024-01-27T02:38:39;1.40;99.90
69533;DHT22;56729;52.036;5.332;2024-01-27T02:39:41;1.30;99.90
69533;DHT22;56729;52.036;5.332;2024-01-27T02:40:43;1.30;99.90
69533;DHT22;56729;52.036;5.332;2024-01-27T02:41:45;1.30;99.90
69533;DHT22;56729;52.036;5.332;2024-01-27T02:42:48;1.30;99.90
69533;DHT22;56729;52.036;5.332;2024-01-27T02:43:50;1.30;99.90
69533;DHT22;56729;52.036;5.332;2024-01-27T02:44:52;1.30;99.90
69533;DHT22;56729;52.036;5.332;2024-01-27T02:45:54;1.40;99.90
69533;DHT22;56729;52.036;5.332;2024-01-27T02:46:56;1.30;99.90
69533;DHT22;56729;52.036;5.332;2024-01-27T02:47:58;1.30;99.90
69533;DHT22;56729;52.036;5.332;2024-01-27T02:49:00;1.30;99.90
69533;DHT22;56729;52.036;5.332;2024-01-27T02:50:02;1.30;99.90
69533;DHT22;56729;52.036;5.332;2024-01-27T02:51:08;1.30;99.90
69533;DHT22;56729;52.036;5.332;2024-01-27T02:52:11;1.30;99.90
69533;DHT22;56729;52.036;5.332;2024-01-27T02:53:13;1.30;99.90
69533;DHT22;56729;52.036;5.332;2024-01-27T02:54:15;1.30;99.90
69533;DHT22;56729;52.036;5.332;2024-01-27T02:55:17;1.30;99.90
69533;DHT22;56729;52.036;5.332;2024-01-27T02:56:19;1.30;99.90
69533;DHT22;56729;52.036;5.332;2024-01-27T02:57:21;1.30;99.90
69533;DHT22;56729;52.036;5.332;2024-01-27T02:58:23;1.30;99.90
69533;DHT22;56729;52.036;5.332;2024-01-27T02:59:25;1.20;99.90
69533;DHT22;56729;52.036;5.332;2024-01-27T03:00:27;1.30;99.90
69533;DHT22;56729;52.036;5.332;2024-01-27T03:01:29;1.30;99.90
69533;DHT22;56729;52.036;5.332;2024-01-27T03:02:32;1.30;99.90
69533;DHT22;56729;52.036;5.332;2024-01-27T03:03:34;1.30;99.90
69533;DHT22;56729;52.036;5.332;2024-01-27T03:04:36;1.30;99.90
69533;DHT22;56729;52.036;5.332;2024-01-27T03:05:38;1.20;99.90
69533;DHT22;56729;52.036;5.332;2024-01-27T03:06:40;1.20;99.90
69533;DHT22;56729;52.036;5.332;2024-01-27T03:07:42;1.20;99.90
69533;DHT22;56729;52.036;5.332;2024-01-27T03:08:44;1.20;99.90
69533;DHT22;56729;52.036;5.332;2024-01-27T03:09:47;1.20;99.90
69533;DHT22;56729;52.036;5.332;2024-01-27T03:10:49;1.20;99.90
69533;DHT22;56729;52.036;5.332;2024-01-27T03:11:51;1.20;99.90
69533;DHT22;56729;52.036;5.332;2024-01-27T03:12:53;1.20;99.90
69533;DHT22;56729;52.036;5.332;2024-01-27T03:13:55;1.30;99.90
69533;DHT22;56729;52.036;5.332;2024-01-27T03:14:57;1.30;99.90
69533;DHT22;56729;52.036;5.332;2024-01-27T03:15:59;1.30;99.90
69533;DHT22;56729;52.036;5.332;2024-01-27T03:17:02;1.30;99.90
69533;DHT22;56729;52.036;5.332;2024-01-27T03:18:04;1.20;99.90
69533;DHT22;56729;52.036;5.332;2024-01-27T03:19:06;1.20;99.90
69533;DHT22;56729;52.036;5.332;2024-01-27T03:20:10;1.20;99.90
69533;DHT22;56729;52.036;5.332;2024-01-27T03:21:14;1.20;99.90
69533;DHT22;56729;52.036;5.332;2024-01-27T03:22:16;1.20;99.90
69533;DHT22;56729;52.036;5.332;2024-01-27T03:23:18;1.20;99.90
69533;DHT22;56729;52.036;5.332;2024-01-27T03:24:20;1.20;99.90
69533;DHT22;56729;52.036;5.332;2024-01-27T03:25:22;1.20;99.90
69533;DHT22;56729;52.036;5.332;2024-01-27T03:26:27;1.20;99.90
69533;DHT22;56729;52.036;5.332;2024-01-27T03:27:29;1.20;99.90
69533;DHT22;56729;52.036;5.332;2024-01-27T03:28:32;1.20;99.90
69533;DHT22;56729;52.036;5.332;2024-01-27T03:29:34;1.20;99.90
69533;DHT22;56729;52.036;5.332;2024-01-27T03:30:36;1.30;99.90
69533;DHT22;56729;52.036;5.332;2024-01-27T03:31:38;1.20;99.90
69533;DHT22;56729;52.036;5.332;2024-01-27T03:32:43;1.30;99.90
69533;DHT22;56729;52.036;5.332;2024-01-27T03:33:46;1.30;99.90
69533;DHT22;56729;52.036;5.332;2024-01-27T03:34:49;1.20;99.90
69533;DHT22;56729;52.036;5.332;2024-01-27T03:35:51;1.20;99.90
69533;DHT22;56729;52.036;5.332;2024-01-27T03:36:54;1.20;99.90
69533;DHT22;56729;52.036;5.332;2024-01-27T03:37:56;1.20;99.90
69533;DHT22;56729;52.036;5.332;2024-01-27T03:39:00;1.20;99.90
69533;DHT22;56729;52.036;5.332;2024-01-27T03:40:02;1.20;99.90
69533;DHT22;56729;52.036;5.332;2024-01-27T03:41:04;1.20;99.90
69533;DHT22;56729;52.036;5.332;2024-01-27T03:42:06;1.20;99.90
69533;DHT22;56729;52.036;5.332;2024-01-27T03:43:08;1.20;99.90
69533;DHT22;56729;52.036;5.332;2024-01-27T03:44:10;1.10;99.90
69533;DHT22;56729;52.036;5.332;2024-01-27T03:45:12;1.10;99.90
69533;DHT22;56729;52.036;5.332;2024-01-27T03:46:14;1.10;99.90
69533;DHT22;56729;52.036;5.332;2024-01-27T03:47:17;1.10;99.90
69533;DHT22;56729;52.036;5.332;2024-01-27T03:48:19;1.10;99.90
69533;DHT22;56729;52.036;5.332;2024-01-27T03:49:21;1.10;99.90
69533;DHT22;56729;52.036;5.332;2024-01-27T03:50:24;1.10;99.90
69533;DHT22;56729;52.036;5.332;2024-01-27T03:51:26;1.10;99.90
69533;DHT22;56729;52.036;5.332;2024-01-27T03:52:28;1.10;99.90
69533;DHT22;56729;52.036;5.332;2024-01-27T03:53:30;1.10;99.90
69533;DHT22;56729;52.036;5.332;2024-01-27T03:54:32;1.20;99.90
69533;DHT22;56729;52.036;5.332;2024-01-27T03:55:34;1.20;99.90
69533;DHT22;56729;52.036;5.332;2024-01-27T03:56:36;1.20;99.90
69533;DHT22;56729;52.036;5.332;2024-01-27T03:57:38;1.20;99.90
69533;DHT22;56729;52.036;5.332;2024-01-27T03:58:40;1.30;99.90
69533;DHT22;56729;52.036;5.332;2024-01-27T03:59:42;1.30;99.90
69533;DHT22;56729;52.036;5.332;2024-01-27T04:00:44;1.30;99.90
69533;DHT22;56729;52.036;5.332;2024-01-27T04:01:47;1.30;99.90
69533;DHT22;56729;52.036;5.332;2024-01-27T04:02:49;1.30;99.90
69533;DHT22;56729;52.036;5.332;2024-01-27T04:03:52;1.30;99.90
69533;DHT22;56729;52.036;5.332;2024-01-27T04:04:54;1.20;99.90
69533;DHT22;56729;52.036;5.332;2024-01-27T04:05:56;1.20;99.90
69533;DHT22;56729;52.036;5.332;2024-01-27T04:06:58;1.10;99.90
69533;DHT22;56729;52.036;5.332;2024-01-27T04:08:01;1.10;99.90
69533;DHT22;56729;52.036;5.332;2024-01-27T04:09:03;1.10;99.90
69533;DHT22;56729;52.036;5.332;2024-01-27T04:10:05;1.10;99.90
69533;DHT22;56729;52.036;5.332;2024-01-27T04:11:07;1.10;99.90
69533;DHT22;56729;52.036;5.332;2024-01-27T04:12:10;1.10;99.90
69533;DHT22;56729;52.036;5.332;2024-01-27T04:13:12;1.10;99.90
69533;DHT22;56729;52.036;5.332;2024-01-27T04:14:14;1.10;99.90
69533;DHT22;56729;52.036;5.332;2024-01-27T04:15:16;1.10;99.90
69533;DHT22;56729;52.036;5.332;2024-01-27T04:16:18;1.10;99.90
69533;DHT22;56729;52.036;5.332;2024-01-27T04:17:21;1.10;99.90
69533;DHT22;56729;52.036;5.332;2024-01-27T04:18:26;1.20;99.90
69533;DHT22;56729;52.036;5.332;2024-01-27T04:19:28;1.20;99.90
69533;DHT22;56729;52.036;5.332;2024-01-27T04:20:30;1.20;99.90
69533;DHT22;56729;52.036;5.332;2024-01-27T04:21:32;1.10;99.90
69533;DHT22;56729;52.036;5.332;2024-01-27T04:22:35;1.10;99.90
69533;DHT22;56729;52.036;5.332;2024-01-27T04:23:37;1.10;99.90
69533;DHT22;56729;52.036;5.332;2024-01-27T04:24:39;1.10;99.90
69533;DHT22;56729;52.036;5.332;2024-01-27T04:25:42;1.00;99.90
69533;DHT22;56729;52.036;5.332;2024-01-27T04:26:44;1.10;99.90
69533;DHT22;56729;52.036;5.332;2024-01-27T04:27:46;1.10;99.90
69533;DHT22;56729;52.036;5.332;2024-01-27T04:28:48;1.10;99.90
69533;DHT22;56729;52.036;5.332;2024-01-27T04:29:50;1.10;99.90
69533;DHT22;56729;52.036;5.332;2024-01-27T04:30:52;1.10;99.90
69533;DHT22;56729;52.036;5.332;2024-01-27T04:31:54;1.10;99.90
69533;DHT22;56729;52.036;5.332;2024-01-27T04:32:56;1.10;99.90
69533;DHT22;56729;52.036;5.332;2024-01-27T04:33:59;1.10;99.90
69533;DHT22;56729;52.036;5.332;2024-01-27T04:35:02;1.10;99.90
69533;DHT22;56729;52.036;5.332;2024-01-27T04:36:05;1.10;99.90
69533;DHT22;56729;52.036;5.332;2024-01-27T04:37:08;1.00;99.90
69533;DHT22;56729;52.036;5.332;2024-01-27T04:38:10;1.00;99.90
69533;DHT22;56729;52.036;5.332;2024-01-27T04:39:12;1.10;99.90
69533;DHT22;56729;52.036;5.332;2024-01-27T04:40:15;1.10;99.90
69533;DHT22;56729;52.036;5.332;2024-01-27T04:41:17;1.10;99.90
69533;DHT22;56729;52.036;5.332;2024-01-27T04:42:19;1.00;99.90
69533;DHT22;56729;52.036;5.332;2024-01-27T04:43:21;1.00;99.90
69533;DHT22;56729;52.036;5.332;2024-01-27T04:44:24;1.00;99.90
69533;DHT22;56729;52.036;5.332;2024-01-27T04:45:26;1.00;99.90
69533;DHT22;56729;52.036;5.332;2024-01-27T04:46:28;1.00;99.90
69533;DHT22;56729;52.036;5.332;2024-01-27T04:47:30;1.00;99.90
69533;DHT22;56729;52.036;5.332;2024-01-27T04:48:32;1.00;99.90
69533;DHT22;56729;52.036;5.332;2024-01-27T04:49:34;1.00;99.90
69533;DHT22;56729;52.036;5.332;2024-01-27T04:50:36;1.00;99.90
69533;DHT22;56729;52.036;5.332;2024-01-27T04:51:38;1.10;99.90
69533;DHT22;56729;52.036;5.332;2024-01-27T04:52:40;1.10;99.90
69533;DHT22;56729;52.036;5.332;2024-01-27T04:53:43;1.10;99.90
69533;DHT22;56729;52.036;5.332;2024-01-27T04:54:45;1.10;99.90
69533;DHT22;56729;52.036;5.332;2024-01-27T04:55:47;1.10;99.90
69533;DHT22;56729;52.036;5.332;2024-01-27T04:56:49;1.20;99.90
69533;DHT22;56729;52.036;5.332;2024-01-27T04:57:51;1.20;99.90
69533;DHT22;56729;52.036;5.332;2024-01-27T04:58:53;1.20;99.90
69533;DHT22;56729;52.036;5.332;2024-01-27T04:59:55;1.20;99.90
69533;DHT22;56729;52.036;5.332;2024-01-27T05:00:57;1.10;99.90
69533;DHT22;56729;52.036;5.332;2024-01-27T05:01:59;1.10;99.90
69533;DHT22;56729;52.036;5.332;2024-01-27T05:03:02;1.10;99.90
69533;DHT22;56729;52.036;5.332;2024-01-27T05:04:07;1.10;99.90
69533;DHT22;56729;52.036;5.332;2024-01-27T05:05:09;1.10;99.90
69533;DHT22;56729;52.036;5.332;2024-01-27T05:06:11;1.20;99.90
69533;DHT22;56729;52.036;5.332;2024-01-27T05:07:13;1.20;99.90
69533;DHT22;56729;52.036;5.332;2024-01-27T05:08:16;1.10;99.90
69533;DHT22;56729;52.036;5.332;2024-01-27T05:09:18;1.20;99.90
69533;DHT22;56729;52.036;5.332;2024-01-27T05:10:20;1.20;99.90
69533;DHT22;56729;52.036;5.332;2024-01-27T05:11:31;1.20;99.90
69533;DHT22;56729;52.036;5.332;2024-01-27T05:12:33;1.20;99.90
69533;DHT22;56729;52.036;5.332;2024-01-27T05:13:35;1.10;99.90
69533;DHT22;56729;52.036;5.332;2024-01-27T05:14:43;1.10;99.90
69533;DHT22;56729;52.036;5.332;2024-01-27T05:15:46;1.10;99.90
69533;DHT22;56729;52.036;5.332;2024-01-27T05:16:48;1.00;99.90
69533;DHT22;56729;52.036;5.332;2024-01-27T05:17:50;1.00;99.90
69533;DHT22;56729;52.036;5.332;2024-01-27T05:18:53;1.00;99.90
69533;DHT22;56729;52.036;5.332;2024-01-27T05:19:57;1.00;99.90
69533;DHT22;56729;52.036;5.332;2024-01-27T05:20:59;1.00;99.90
69533;DHT22;56729;52.036;5.332;2024-01-27T05:22:01;0.90;99.90
69533;DHT22;56729;52.036;5.332;2024-01-27T05:23:03;0.90;99.90
69533;DHT22;56729;52.036;5.332;2024-01-27T05:24:05;1.00;99.90
69533;DHT22;56729;52.036;5.332;2024-01-27T05:25:07;1.00;99.90
69533;DHT22;56729;52.036;5.332;2024-01-27T05:26:10;1.00;99.90
69533;DHT22;56729;52.036;5.332;2024-01-27T05:27:15;1.00;99.90
69533;DHT22;56729;52.036;5.332;2024-01-27T05:28:17;1.00;99.90
69533;DHT22;56729;52.036;5.332;2024-01-27T05:29:19;1.00;99.90
69533;DHT22;56729;52.036;5.332;2024-01-27T05:30:21;1.00;99.90
69533;DHT22;56729;52.036;5.332;2024-01-27T05:31:25;1.00;99.90
69533;DHT22;56729;52.036;5.332;2024-01-27T05:32:27;1.00;99.90
69533;DHT22;56729;52.036;5.332;2024-01-27T05:33:29;1.00;99.90
69533;DHT22;56729;52.036;5.332;2024-01-27T05:34:31;0.90;99.90
69533;DHT22;56729;52.036;5.332;2024-01-27T05:35:34;1.00;99.90
69533;DHT22;56729;52.036;5.332;2024-01-27T05:36:36;1.00;99.90
69533;DHT22;56729;52.036;5.332;2024-01-27T05:37:38;1.00;99.90
69533;DHT22;56729;52.036;5.332;2024-01-27T05:38:41;1.00;99.90
69533;DHT22;56729;52.036;5.332;2024-01-27T05:39:43;0.90;99.90
69533;DHT22;56729;52.036;5.332;2024-01-27T05:40:45;0.90;99.90
69533;DHT22;56729;52.036;5.332;2024-01-27T05:41:47;0.90;99.90
69533;DHT22;56729;52.036;5.332;2024-01-27T05:42:49;0.90;99.90
69533;DHT22;56729;52.036;5.332;2024-01-27T05:43:52;0.90;99.90
69533;DHT22;56729;52.036;5.332;2024-01-27T05:44:54;0.90;99.90
69533;DHT22;56729;52.036;5.332;2024-01-27T05:45:56;0.90;99.90
69533;DHT22;56729;52.036;5.332;2024-01-27T05:46:58;0.90;99.90
69533;DHT22;56729;52.036;5.332;2024-01-27T05:48:00;0.90;99.90
69533;DHT22;56729;52.036;5.332;2024-01-27T05:49:02;0.90;99.90
69533;DHT22;56729;52.036;5.332;2024-01-27T05:50:06;0.90;99.90
69533;DHT22;56729;52.036;5.332;2024-01-27T05:51:09;0.90;99.90
69533;DHT22;56729;52.036;5.332;2024-01-27T05:52:12;0.90;99.90
69533;DHT22;56729;52.036;5.332;2024-01-27T05:53:27;0.90;99.90
69533;DHT22;56729;52.036;5.332;2024-01-27T05:54:29;0.90;99.90
69533;DHT22;56729;52.036;5.332;2024-01-27T05:55:31;0.90;99.90
69533;DHT22;56729;52.036;5.332;2024-01-27T05:56:35;0.80;99.90
69533;DHT22;56729;52.036;5.332;2024-01-27T05:57:38;0.80;99.90
69533;DHT22;56729;52.036;5.332;2024-01-27T05:58:40;0.80;99.90
69533;DHT22;56729;52.036;5.332;2024-01-27T05:59:42;0.80;99.90
69533;DHT22;56729;52.036;5.332;2024-01-27T06:00:44;0.80;99.90
69533;DHT22;56729;52.036;5.332;2024-01-27T06:01:46;0.80;99.90
69533;DHT22;56729;52.036;5.332;2024-01-27T06:02:49;0.80;99.90
69533;DHT22;56729;52.036;5.332;2024-01-27T06:03:51;0.80;99.90
69533;DHT22;56729;52.036;5.332;2024-01-27T06:04:54;0.80;99.90
69533;DHT22;56729;52.036;5.332;2024-01-27T06:05:56;0.80;99.90
69533;DHT22;56729;52.036;5.332;2024-01-27T06:06:58;0.80;99.90
69533;DHT22;56729;52.036;5.332;2024-01-27T06:08:00;0.80;99.90
69533;DHT22;56729;52.036;5.332;2024-01-27T06:09:02;0.90;99.90
69533;DHT22;56729;52.036;5.332;2024-01-27T06:10:09;0.90;99.90
69533;DHT22;56729;52.036;5.332;2024-01-27T06:11:11;0.90;99.90
69533;DHT22;56729;52.036;5.332;2024-01-27T06:12:13;0.90;99.90
69533;DHT22;56729;52.036;5.332;2024-01-27T06:13:15;1.00;99.90
69533;DHT22;56729;52.036;5.332;2024-01-27T06:14:17;1.00;99.90
69533;DHT22;56729;52.036;5.332;2024-01-27T06:15:19;1.00;99.90
69533;DHT22;56729;52.036;5.332;2024-01-27T06:16:22;1.00;99.90
69533;DHT22;56729;52.036;5.332;2024-01-27T06:17:25;1.00;99.90
69533;DHT22;56729;52.036;5.332;2024-01-27T06:18:27;1.00;99.90
69533;DHT22;56729;52.036;5.332;2024-01-27T06:19:29;1.00;99.90
69533;DHT22;56729;52.036;5.332;2024-01-27T06:20:31;1.00;99.90
69533;DHT22;56729;52.036;5.332;2024-01-27T06:21:33;1.00;99.90
69533;DHT22;56729;52.036;5.332;2024-01-27T06:22:36;1.00;99.90
69533;DHT22;56729;52.036;5.332;2024-01-27T06:23:38;1.00;99.90
69533;DHT22;56729;52.036;5.332;2024-01-27T06:24:43;1.00;99.90
69533;DHT22;56729;52.036;5.332;2024-01-27T06:25:46;1.00;99.90
69533;DHT22;56729;52.036;5.332;2024-01-27T06:26:48;1.00;99.90
69533;DHT22;56729;52.036;5.332;2024-01-27T06:27:50;1.00;99.90
69533;DHT22;56729;52.036;5.332;2024-01-27T06:28:52;1.00;99.90
69533;DHT22;56729;52.036;5.332;2024-01-27T06:29:55;0.90;99.90
69533;DHT22;56729;52.036;5.332;2024-01-27T06:30:57;0.90;99.90
69533;DHT22;56729;52.036;5.332;2024-01-27T06:31:59;0.90;99.90
69533;DHT22;56729;52.036;5.332;2024-01-27T06:33:01;0.90;99.90
69533;DHT22;56729;52.036;5.332;2024-01-27T06:34:04;0.90;99.90
69533;DHT22;56729;52.036;5.332;2024-01-27T06:35:06;0.90;99.90
69533;DHT22;56729;52.036;5.332;2024-01-27T06:36:09;0.90;99.90
69533;DHT22;56729;52.036;5.332;2024-01-27T06:37:11;0.90;99.90
69533;DHT22;56729;52.036;5.332;2024-01-27T06:38:13;0.90;99.90
69533;DHT22;56729;52.036;5.332;2024-01-27T06:39:15;0.90;99.90
69533;DHT22;56729;52.036;5.332;2024-01-27T06:40:17;0.90;99.90